aviador You're here:

KBWG Decoded Metar

BOWLING GREE in KY, USA
Report Time2018-02-25 22:53:00
UTC Time2018-02-25 23:48:21
Flight Rules vfr VFR
Wind260° at 03 kt
W.Decomp.*RWY 30: 2.4 kt HW 1.8 kt LCW
RWY 21: 1.8 kt HW 2.4 kt RCW
W.Rank260° ranks 22
Current wind is below 260° avg. (7.3)
Visibility9999 m
Phenomena:N/A
Clouds:N/A
Expected CloudBase > 2,800 ft AGL from Temp-Dew spread
CeilingNone
Temp11°C (ISA -3)
Dew Point04°C (62% RH)
AAT8.6°C
QNH1021 hPa
Density Alt49 ft
Elevation551 ft
Report Wrong Elevation
Raw Report
METAR KBWG 252253Z AUTO 26003KT 10SM CLR 11/04 A3014 RMK AO2 SLP204
T01110044=

Extra information for KBWG:More info

Metar Taf Metar & Taf Last 4 Metars F.Rules Stats Wind Profile Meteogram Temp Stats Airport Information Weather charts Add Link Nearby VenuesMetar ALERT Operation Metar Decoded Social comments

AIRNAV info for KBWG